Time;durP1;ratioP1;P1;durP2;ratioP2;P2;SDS_P1;SDS_P2;PMS_P1;PMS_P2;Temp;Humidity;BMP_temperature;BMP_pressure;BME280_temperature;BME280_humidity;BME280_pressure;Samples;Min_cycle;Max_cycle;Signal;HPM_P1;HPM_P2
2022/05/27 00:00:44;;;;;;;16.63;3.65;;;15.20;99.90;;;;;;4997947;28;20041;-56
2022/05/27 00:03:11;;;;;;;12.75;2.30;;;15.20;99.90;;;;;;5010430;28;20053;-57
2022/05/27 00:05:37;;;;;;;10.85;2.25;;;15.20;99.90;;;;;;5008461;28;20370;-57
2022/05/27 00:08:04;;;;;;;11.60;2.15;;;15.20;99.90;;;;;;4994121;28;20030;-56
2022/05/27 00:10:29;;;;;;;15.38;2.97;;;15.20;99.90;;;;;;5010293;28;20053;-57
2022/05/27 00:12:55;;;;;;;11.38;2.08;;;15.20;99.90;;;;;;5001401;28;20379;-58
2022/05/27 00:15:21;;;;;;;10.85;2.25;;;15.20;99.90;;;;;;4995691;28;20037;-57
2022/05/27 00:17:47;;;;;;;11.18;2.40;;;15.10;99.90;;;;;;4999363;28;20535;-57
2022/05/27 00:20:14;;;;;;;6.40;1.70;;;15.20;99.90;;;;;;5003536;28;20034;-57
2022/05/27 00:22:40;;;;;;;4.75;1.88;;;15.20;99.90;;;;;;5007770;28;20038;-57
2022/05/27 00:25:07;;;;;;;8.63;1.95;;;15.20;99.90;;;;;;4993014;28;20038;-57
2022/05/27 00:27:32;;;;;;;13.45;2.20;;;15.20;99.90;;;;;;5003683;28;20029;-56
2022/05/27 00:29:58;;;;;;;9.98;1.95;;;15.20;99.90;;;;;;5003542;28;20034;-56
2022/05/27 00:32:24;;;;;;;9.23;2.38;;;15.20;99.90;;;;;;5009122;28;20128;-57
2022/05/27 00:34:50;;;;;;;11.32;2.65;;;15.20;99.90;;;;;;5000240;28;21924;-57
2022/05/27 00:37:15;;;;;;;12.43;2.22;;;15.20;99.90;;;;;;5016243;28;20039;-57
2022/05/27 00:39:41;;;;;;;7.70;1.55;;;15.20;99.90;;;;;;5014691;28;20526;-57
2022/05/27 00:42:07;;;;;;;8.45;1.70;;;15.20;99.90;;;;;;5016438;28;20029;-57
2022/05/27 00:44:33;;;;;;;10.25;1.95;;;15.20;99.90;;;;;;5016095;28;20036;-57
2022/05/27 00:47:06;;;;;;;7.57;2.22;;;15.20;99.90;;;;;;5012089;28;20474;-58
2022/05/27 00:49:33;;;;;;;9.32;1.88;;;15.20;99.90;;;;;;5016299;28;20030;-57
2022/05/27 00:52:06;;;;;;;9.95;1.65;;;15.20;99.90;;;;;;5014599;28;20056;-58
2022/05/27 00:54:32;;;;;;;8.15;1.77;;;15.20;99.90;;;;;;5016260;28;20048;-57
2022/05/27 00:57:03;;;;;;;7.53;1.67;;;15.20;99.90;;;;;;5014191;28;20366;-56
2022/05/27 00:59:54;;;;;;;9.40;2.22;;;15.10;99.90;;;;;;5014662;28;20030;-56
2022/05/27 01:02:20;;;;;;;6.82;1.50;;;15.10;99.90;;;;;;5011111;28;20096;-55
2022/05/27 01:04:47;;;;;;;14.30;2.05;;;15.10;99.90;;;;;;5014666;28;20037;-57
2022/05/27 01:07:13;;;;;;;8.15;2.00;;;15.20;99.90;;;;;;5015823;28;20068;-56
2022/05/27 01:09:42;;;;;;;5.75;1.65;;;15.10;99.90;;;;;;5012907;28;20057;-57
2022/05/27 01:12:42;;;;;;;9.07;2.15;;;15.10;99.90;;;;;;5014335;28;20084;-57
2022/05/27 01:15:22;;;;;;;8.82;1.75;;;15.10;99.90;;;;;;5011038;28;20038;-57
2022/05/27 01:18:14;;;;;;;6.55;1.92;;;15.10;99.90;;;;;;5014290;28;20560;-57
2022/05/27 01:21:02;;;;;;;11.55;1.90;;;15.10;99.90;;;;;;5002999;28;20029;-57
2022/05/27 01:23:34;;;;;;;3.88;1.52;;;15.00;99.90;;;;;;5015942;28;20061;-58
2022/05/27 01:26:35;;;;;;;7.40;2.08;;;15.00;99.90;;;;;;5014626;28;20034;-58
2022/05/27 01:29:31;;;;;;;8.90;2.70;;;14.90;99.90;;;;;;5013801;28;20033;-57
2022/05/27 01:32:03;;;;;;;10.70;2.42;;;14.90;99.90;;;;;;5011766;28;20046;-57
2022/05/27 01:34:40;;;;;;;;;;;14.90;99.90;;;;;;5016351;28;20030;-57
2022/05/27 01:37:36;;;;;;;10.85;2.20;;;14.90;99.90;;;;;;5009957;28;19909;-57
2022/05/27 01:40:30;;;;;;;17.33;2.70;;;14.90;99.90;;;;;;5013647;28;20046;-57
2022/05/27 01:42:59;;;;;;;10.32;1.98;;;14.90;99.90;;;;;;5013160;28;20034;-57
2022/05/27 01:45:35;;;;;;;14.63;2.47;;;14.80;99.90;;;;;;5015827;28;20207;-57
2022/05/27 01:48:25;;;;;;;9.75;2.58;;;14.80;99.90;;;;;;5005136;28;20038;-57
2022/05/27 01:51:16;;;;;;;14.85;2.58;;;14.80;99.90;;;;;;5009859;28;20136;-56
2022/05/27 01:53:53;;;;;;;18.50;2.47;;;14.80;99.90;;;;;;5010320;28;20047;-56
2022/05/27 01:56:33;;;;;;;7.45;2.28;;;14.80;99.90;;;;;;5012440;28;20291;-56
2022/05/27 01:59:17;;;;;;;8.55;2.58;;;14.80;99.90;;;;;;5009692;28;20037;-57
2022/05/27 02:01:49;;;;;;;12.45;2.92;;;14.80;99.90;;;;;;5010681;28;20508;-57
2022/05/27 02:04:18;;;;;;;8.88;1.90;;;14.90;99.90;;;;;;5012762;28;20070;-57
2022/05/27 02:06:49;;;;;;;10.95;2.88;;;14.80;99.90;;;;;;5009118;28;20049;-57
2022/05/27 02:09:22;;;;;;;13.55;2.08;;;14.80;99.90;;;;;;5012656;28;20026;-57
2022/05/27 02:11:51;;;;;;;11.27;2.60;;;14.90;99.90;;;;;;5006669;28;20053;-58
2022/05/27 02:14:28;;;;;;;10.80;2.30;;;14.90;99.90;;;;;;5008989;28;20088;-57
2022/05/27 02:16:57;;;;;;;14.20;2.40;;;14.90;99.90;;;;;;5002977;28;20080;-58
2022/05/27 02:19:44;;;;;;;16.30;2.75;;;14.90;99.90;;;;;;5012353;28;20113;-58
2022/05/27 02:22:16;;;;;;;11.95;2.08;;;14.90;99.90;;;;;;5006443;28;20036;-57
2022/05/27 02:24:54;;;;;;;10.88;2.00;;;14.90;99.90;;;;;;5010550;28;20053;-57
2022/05/27 02:27:31;;;;;;;10.93;2.78;;;14.90;99.90;;;;;;5011123;28;20126;-57
2022/05/27 02:30:01;;;;;;;8.80;2.20;;;14.80;99.90;;;;;;5009096;28;20112;-58
2022/05/27 02:32:48;;;;;;;8.98;3.13;;;14.80;99.90;;;;;;5011920;28;20056;-57
2022/05/27 02:35:23;;;;;;;10.90;2.10;;;14.80;99.90;;;;;;5011383;28;20026;-57
2022/05/27 02:37:54;;;;;;;12.70;2.03;;;14.90;99.90;;;;;;5009028;28;20032;-57
2022/05/27 02:40:23;;;;;;;15.20;2.53;;;14.80;99.90;;;;;;5011780;28;20026;-57
2022/05/27 02:43:19;;;;;;;11.48;2.03;;;14.80;99.90;;;;;;5009686;28;20038;-57
2022/05/27 02:46:34;;;;;;;7.80;2.13;;;14.80;99.90;;;;;;5008925;28;20034;-57
2022/05/27 02:49:17;;;;;;;13.25;2.20;;;14.80;99.90;;;;;;4968152;28;20041;-57
2022/05/27 02:51:54;;;;;;;8.80;1.90;;;14.80;99.90;;;;;;4968981;28;20189;-57
2022/05/27 02:54:39;;;;;;;10.95;2.53;;;14.80;99.90;;;;;;4965699;28;20038;-57
2022/05/27 02:57:23;;;;;;;15.85;2.85;;;14.80;99.90;;;;;;4963088;28;20043;-57
2022/05/27 02:59:50;;;;;;;10.27;2.40;;;14.80;99.90;;;;;;4966932;28;20038;-56
2022/05/27 03:02:17;;;;;;;10.02;2.10;;;14.70;99.90;;;;;;4970014;28;20561;-57
2022/05/27 03:04:52;;;;;;;9.18;2.15;;;14.70;99.90;;;;;;4968212;28;20566;-56
2022/05/27 03:07:56;;;;;;;11.43;3.88;;;14.80;99.90;;;;;;4965365;28;20062;-58
2022/05/27 03:10:50;;;;;;;8.63;1.88;;;14.80;99.90;;;;;;4968390;28;20039;-57
2022/05/27 03:13:37;;;;;;;10.70;2.35;;;14.80;99.90;;;;;;4962647;28;20526;-57
2022/05/27 03:16:33;;;;;;;8.85;1.90;;;14.70;99.90;;;;;;4961098;28;20590;-58
2022/05/27 03:19:02;;;;;;;11.27;2.47;;;14.70;99.90;;;;;;4959650;28;20043;-56
2022/05/27 03:21:45;;;;;;;8.57;2.33;;;14.70;99.90;;;;;;4969143;28;20462;-57
2022/05/27 03:24:21;;;;;;;9.55;2.17;;;14.70;99.90;;;;;;5004942;28;20092;-57
2022/05/27 03:27:13;;;;;;;10.40;2.03;;;14.70;99.90;;;;;;5003880;28;20026;-58
2022/05/27 03:29:50;;;;;;;8.10;1.87;;;14.70;99.90;;;;;;5000508;28;20018;-57
2022/05/27 03:32:44;;;;;;;11.43;2.05;;;14.70;99.90;;;;;;5007400;28;20747;-57
2022/05/27 03:35:30;;;;;;;9.15;1.92;;;14.70;99.90;;;;;;5009529;28;20096;-57
2022/05/27 03:38:11;;;;;;;9.80;2.13;;;14.70;99.90;;;;;;5008833;28;20038;-58
2022/05/27 03:40:58;;;;;;;14.85;2.42;;;14.70;99.90;;;;;;5010768;28;20025;-57
2022/05/27 03:43:26;;;;;;;7.72;2.00;;;14.70;99.90;;;;;;5006711;28;20576;-57
2022/05/27 03:45:53;;;;;;;7.53;1.77;;;14.70;99.90;;;;;;5008754;28;20355;-57
2022/05/27 03:48:20;;;;;;;7.88;1.83;;;14.70;99.90;;;;;;5010214;28;20040;-58
2022/05/27 03:50:48;;;;;;;8.10;2.22;;;14.70;99.90;;;;;;5008778;28;20053;-57
2022/05/27 03:53:14;;;;;;;6.85;1.85;;;14.80;99.90;;;;;;5009483;28;20101;-57
2022/05/27 03:55:44;;;;;;;4.78;1.52;;;14.70;99.90;;;;;;5009010;28;20076;-56
2022/05/27 03:58:17;;;;;;;11.48;2.00;;;14.70;99.90;;;;;;5006627;28;20030;-56
2022/05/27 04:00:43;;;;;;;11.32;2.70;;;14.50;99.90;;;;;;5008288;28;20474;-57
2022/05/27 04:03:11;;;;;;;10.20;1.60;;;14.50;99.90;;;;;;5009293;28;20070;-57
2022/05/27 04:05:39;;;;;;;12.35;2.63;;;14.40;99.90;;;;;;5009431;28;20079;-57
2022/05/27 04:08:05;;;;;;;9.85;2.25;;;14.50;99.90;;;;;;5002423;28;20034;-58
2022/05/27 04:10:31;;;;;;;8.88;1.80;;;14.50;99.90;;;;;;5009707;28;20038;-58
2022/05/27 04:12:57;;;;;;;6.30;1.70;;;14.40;99.90;;;;;;5008150;28;20520;-58
2022/05/27 04:15:23;;;;;;;8.82;2.25;;;14.40;99.90;;;;;;5010200;28;20029;-58
2022/05/27 04:17:48;;;;;;;8.32;1.98;;;14.40;99.90;;;;;;4999618;28;20027;-57
2022/05/27 04:20:18;;;;;;;7.55;1.30;;;14.40;99.90;;;;;;5010246;28;20033;-58
2022/05/27 04:22:44;;;;;;;11.13;1.48;;;14.30;99.90;;;;;;5006866;28;20065;-57
2022/05/27 04:25:11;;;;;;;9.05;1.77;;;14.20;99.90;;;;;;5010168;28;20034;-57
2022/05/27 04:27:37;;;;;;;9.25;1.70;;;14.20;99.90;;;;;;5009764;28;20393;-58
2022/05/27 04:30:06;;;;;;;8.45;1.90;;;14.20;99.90;;;;;;5007329;28;20037;-57
2022/05/27 04:32:31;;;;;;;7.80;2.00;;;14.10;99.90;;;;;;5009735;28;20049;-57
2022/05/27 04:34:57;;;;;;;8.43;1.85;;;14.10;99.90;;;;;;5008154;28;20480;-57
2022/05/27 04:37:24;;;;;;;5.68;1.65;;;14.00;99.90;;;;;;5009278;28;20028;-59
2022/05/27 04:39:50;;;;;;;12.35;3.22;;;13.90;99.90;;;;;;5007115;28;20054;-57
2022/05/27 04:42:17;;;;;;;8.88;2.15;;;13.80;99.90;;;;;;5003386;28;20104;-57
2022/05/27 04:44:43;;;;;;;11.65;2.35;;;13.80;99.90;;;;;;5007645;28;20033;-57
2022/05/27 04:47:09;;;;;;;13.02;2.50;;;13.80;99.90;;;;;;5009675;28;20022;-57
2022/05/27 04:49:51;;;;;;;6.03;2.30;;;13.90;99.90;;;;;;5009965;28;20128;-56
2022/05/27 04:52:21;;;;;;;8.02;1.52;;;13.70;99.90;;;;;;5009613;28;20095;-56
2022/05/27 04:54:48;;;;;;;6.95;2.20;;;13.60;99.90;;;;;;5007914;28;20497;-57
2022/05/27 04:57:24;;;;;;;5.28;2.50;;;13.70;99.90;;;;;;5009612;28;20037;-58
2022/05/27 04:59:50;;;;;;;9.55;2.10;;;13.70;99.90;;;;;;4998043;28;20054;-58
2022/05/27 05:02:24;;;;;;;11.43;2.53;;;13.60;99.90;;;;;;5009280;28;20065;-58
2022/05/27 05:04:51;;;;;;;5.85;1.67;;;13.60;99.90;;;;;;5003864;28;20029;-58
2022/05/27 05:07:22;;;;;;;4.10;1.67;;;13.50;99.90;;;;;;5009177;28;20070;-58
2022/05/27 05:09:48;;;;;;;5.23;1.30;;;13.60;99.90;;;;;;5001122;28;20045;-57
2022/05/27 05:12:14;;;;;;;7.82;1.67;;;13.60;99.90;;;;;;5002980;28;20074;-58
2022/05/27 05:14:41;;;;;;;3.17;1.30;;;13.60;99.90;;;;;;5004982;28;20026;-57
2022/05/27 05:17:07;;;;;;;5.13;1.30;;;13.60;99.90;;;;;;5009452;28;20037;-58
2022/05/27 05:19:34;;;;;;;1.85;1.33;;;13.60;99.90;;;;;;5008541;28;20022;-57
2022/05/27 05:21:59;;;;;;;5.00;1.30;;;13.70;99.90;;;;;;5008055;28;20437;-57
2022/05/27 05:24:25;;;;;;;8.43;2.17;;;13.70;99.90;;;;;;5012991;28;20034;-57
2022/05/27 05:26:51;;;;;;;5.75;1.10;;;13.70;99.90;;;;;;5010282;28;20478;-57
2022/05/27 05:29:17;;;;;;;2.90;0.80;;;13.80;99.90;;;;;;5012921;28;20084;-57
2022/05/27 05:31:43;;;;;;;5.32;1.10;;;13.80;99.90;;;;;;5010086;28;20049;-57
2022/05/27 05:34:09;;;;;;;5.38;1.20;;;13.90;99.90;;;;;;5013031;28;20116;-57
2022/05/27 05:36:35;;;;;;;2.90;0.88;;;13.90;99.90;;;;;;5012625;28;20033;-57
2022/05/27 05:39:02;;;;;;;6.63;1.10;;;13.90;99.90;;;;;;5011350;28;20033;-57
2022/05/27 05:41:31;;;;;;;1.42;0.60;;;14.00;99.90;;;;;;5010226;28;20029;-58
2022/05/27 05:43:57;;;;;;;3.28;0.98;;;14.00;99.90;;;;;;5009081;28;20022;-57
2022/05/27 05:46:26;;;;;;;2.25;0.57;;;14.10;99.90;;;;;;5007908;28;20128;-57
2022/05/27 05:48:53;;;;;;;1.80;0.70;;;14.00;99.90;;;;;;5009681;28;20381;-57
2022/05/27 05:51:20;;;;;;;2.88;0.82;;;14.10;99.90;;;;;;5012591;28;20129;-56
2022/05/27 05:53:46;;;;;;;3.25;0.50;;;14.10;99.90;;;;;;5010683;28;20044;-57
2022/05/27 05:56:13;;;;;;;3.70;0.55;;;14.20;99.90;;;;;;5009889;28;20034;-58
2022/05/27 05:58:39;;;;;;;2.30;0.82;;;14.20;99.90;;;;;;5011732;28;20034;-58
2022/05/27 06:01:05;;;;;;;1.40;0.80;;;14.30;99.90;;;;;;5012390;28;20108;-56
2022/05/27 06:03:31;;;;;;;1.83;0.80;;;14.40;99.90;;;;;;5012520;28;20113;-58
2022/05/27 06:05:56;;;;;;;3.80;0.88;;;14.40;99.90;;;;;;5016446;28;20118;-57
2022/05/27 06:08:22;;;;;;;3.03;1.10;;;14.50;99.90;;;;;;5010106;28;20026;-59
2022/05/27 06:10:48;;;;;;;4.07;1.08;;;14.50;99.90;;;;;;5010477;28;20053;-57
2022/05/27 06:13:14;;;;;;;4.47;0.90;;;14.60;99.90;;;;;;5012015;28;20039;-56
2022/05/27 06:15:41;;;;;;;2.40;0.98;;;14.60;99.90;;;;;;5010505;28;20026;-57
2022/05/27 06:18:07;;;;;;;2.65;0.70;;;14.60;99.90;;;;;;5012396;28;20026;-59
2022/05/27 06:20:35;;;;;;;2.22;0.85;;;14.60;99.90;;;;;;5011857;28;20037;-58
2022/05/27 06:23:04;;;;;;;2.33;0.73;;;14.60;99.90;;;;;;5005429;28;20083;-62
2022/05/27 06:25:29;;;;;;;2.97;1.55;;;14.60;99.90;;;;;;5012006;28;20026;-57
2022/05/27 06:34:23;;;;;;;2.75;1.02;;;14.70;99.90;;;;;;5009014;28;20022;-58
2022/05/27 06:36:10;;;;;;;3.40;1.45;;;14.80;99.90;;;;;;5003949;28;20033;-58
2022/05/27 06:38:37;;;;;;;2.35;1.30;;;15.00;99.90;;;;;;5008397;28;20021;-57
2022/05/27 06:41:04;;;;;;;2.25;0.93;;;14.90;99.90;;;;;;5008943;28;20037;-57
2022/05/27 06:43:33;;;;;;;2.00;1.00;;;15.00;99.90;;;;;;5004693;28;20481;-57
2022/05/27 06:46:00;;;;;;;2.35;1.27;;;15.00;99.90;;;;;;5010038;28;20665;-56
2022/05/27 06:48:27;;;;;;;3.65;0.90;;;15.10;99.90;;;;;;5010902;28;20025;-56
2022/05/27 06:50:53;;;;;;;4.40;0.88;;;15.10;98.60;;;;;;5009361;28;20048;-56
2022/05/27 06:53:19;;;;;;;3.30;0.68;;;15.20;98.80;;;;;;5011124;28;20066;-56
2022/05/27 06:55:49;;;;;;;2.55;1.00;;;15.30;97.60;;;;;;5003310;28;20359;-58
2022/05/27 06:58:15;;;;;;;2.80;1.13;;;15.40;97.60;;;;;;5003868;28;20028;-58
2022/05/27 07:00:41;;;;;;;4.80;1.08;;;15.40;97.40;;;;;;5006365;28;20113;-58
2022/05/27 07:03:07;;;;;;;1.67;1.20;;;15.40;97.80;;;;;;5012063;28;20117;-58
2022/05/27 07:05:34;;;;;;;3.45;0.77;;;15.50;97.30;;;;;;5015445;28;20481;-58
2022/05/27 07:08:02;;;;;;;3.55;1.17;;;15.40;96.80;;;;;;5001289;28;20485;-58
2022/05/27 07:10:27;;;;;;;3.58;1.40;;;15.40;96.80;;;;;;5021434;28;20496;-57
2022/05/27 07:12:58;;;;;;;4.30;1.10;;;15.40;97.50;;;;;;5016195;28;20046;-57
2022/05/27 07:15:27;;;;;;;3.60;1.02;;;15.40;97.30;;;;;;5010547;28;20069;-57
2022/05/27 07:17:53;;;;;;;2.13;0.98;;;15.50;97.50;;;;;;5016341;28;20366;-58
2022/05/27 07:20:19;;;;;;;4.00;1.00;;;15.50;96.80;;;;;;5009094;28;20022;-57
2022/05/27 07:22:44;;;;;;;5.18;1.40;;;15.50;97.00;;;;;;5018644;28;20419;-58
2022/05/27 07:25:13;;;;;;;5.90;1.23;;;15.70;96.30;;;;;;5022489;28;20029;-57
2022/05/27 07:27:42;;;;;;;2.80;1.08;;;15.70;95.60;;;;;;5010215;28;20057;-57
2022/05/27 07:30:15;;;;;;;3.88;1.33;;;15.60;94.70;;;;;;5017751;28;20501;-57
2022/05/27 07:32:41;;;;;;;4.00;1.20;;;15.50;94.80;;;;;;5007206;28;20052;-57
2022/05/27 07:35:08;;;;;;;1.00;0.85;;;15.60;95.40;;;;;;5015729;28;20032;-58
2022/05/27 07:37:34;;;;;;;4.30;0.90;;;15.70;94.80;;;;;;5012496;28;20453;-58
2022/05/27 07:40:00;;;;;;;2.38;1.17;;;15.60;93.80;;;;;;5019898;28;20022;-58
2022/05/27 07:42:26;;;;;;;7.88;1.67;;;15.60;93.40;;;;;;5008605;28;20465;-59
2022/05/27 07:44:52;;;;;;;3.33;0.80;;;15.90;93.80;;;;;;5007190;28;20083;-59
2022/05/27 07:47:18;;;;;;;3.55;1.00;;;16.20;93.00;;;;;;5012620;28;20041;-59
2022/05/27 07:49:44;;;;;;;5.47;1.33;;;16.40;92.00;;;;;;5022106;28;20473;-59
2022/05/27 07:52:11;;;;;;;4.10;1.27;;;16.50;92.00;;;;;;5005045;28;20042;-58
2022/05/27 07:54:36;;;;;;;2.20;1.17;;;16.60;92.50;;;;;;5026732;28;20489;-58
2022/05/27 07:57:23;;;;;;;4.32;1.23;;;16.70;93.30;;;;;;5012589;28;20033;-58
2022/05/27 08:00:00;;;;;;;2.33;0.95;;;16.80;91.80;;;;;;5024972;28;20033;-58
2022/05/27 08:02:26;;;;;;;7.38;0.98;;;16.60;91.10;;;;;;5017838;28;20037;-58
2022/05/27 08:04:54;;;;;;;4.07;1.15;;;16.30;91.70;;;;;;5010466;28;20026;-68
2022/05/27 08:07:21;;;;;;;5.45;1.40;;;16.30;89.10;;;;;;5011870;28;20088;-57
2022/05/27 08:09:47;;;;;;;6.38;1.08;;;16.20;90.10;;;;;;5005878;28;20112;-59
2022/05/27 08:12:13;;;;;;;3.13;0.85;;;16.30;90.00;;;;;;4998674;28;20473;-58
2022/05/27 08:14:39;;;;;;;4.90;1.00;;;16.30;89.80;;;;;;5008795;28;20500;-58
2022/05/27 08:17:06;;;;;;;5.50;1.23;;;16.50;90.20;;;;;;5001502;28;20030;-58
2022/05/27 08:19:32;;;;;;;7.63;1.10;;;16.60;89.80;;;;;;5016480;28;20028;-58
2022/05/27 08:21:59;;;;;;;2.35;0.90;;;16.90;86.90;;;;;;5006983;28;20092;-58
2022/05/27 08:24:25;;;;;;;5.25;1.02;;;16.90;85.90;;;;;;5007264;28;20038;-57
2022/05/27 08:26:51;;;;;;;4.35;1.25;;;16.70;87.00;;;;;;5006664;28;20026;-58
2022/05/27 08:29:17;;;;;;;6.90;1.23;;;16.60;86.50;;;;;;5015312;28;20471;-59
2022/05/27 08:31:46;;;;;;;2.88;0.90;;;16.60;86.10;;;;;;5006810;28;20084;-59
2022/05/27 08:39:46;;;;;;;4.82;1.40;;;16.50;85.20;;;;;;5012594;28;20040;-58
2022/05/27 08:42:48;;;;;;;2.00;1.10;;;16.50;85.40;;;;;;5008186;28;20022;-58
2022/05/27 08:45:21;;;;;;;;;;;16.70;85.40;;;;;;5009307;28;20037;-58
2022/05/27 08:47:55;;;;;;;7.15;1.23;;;16.90;84.50;;;;;;4996454;28;19914;-57
2022/05/27 08:50:32;;;;;;;3.45;1.10;;;17.00;83.20;;;;;;5013951;28;20520;-57
2022/05/27 08:53:28;;;;;;;4.78;1.00;;;16.90;83.80;;;;;;5013797;28;20044;-58
2022/05/27 09:01:37;;;;;;;4.53;2.05;;;17.10;76.90;;;;;;5011530;28;20036;-58
2022/05/27 09:04:21;;;;;;;6.30;1.52;;;17.20;79.70;;;;;;5015464;28;20052;-58
2022/05/27 09:06:52;;;;;;;5.22;1.10;;;17.40;79.30;;;;;;5013659;28;20057;-60
2022/05/27 09:09:22;;;;;;;6.10;1.30;;;17.40;76.90;;;;;;5016034;28;20065;-58
2022/05/27 09:12:01;;;;;;;4.30;1.52;;;17.50;77.60;;;;;;5009116;28;20444;-57
2022/05/27 09:14:31;;;;;;;4.35;1.42;;;17.50;77.90;;;;;;5016849;28;20068;-58
2022/05/27 09:17:04;;;;;;;3.65;1.10;;;17.60;79.10;;;;;;5008393;28;20034;-58
2022/05/27 09:19:41;;;;;;;4.80;1.20;;;17.70;78.80;;;;;;5011190;28;20088;-58
2022/05/27 09:22:12;;;;;;;2.28;1.00;;;17.70;78.90;;;;;;5012091;28;20425;-59
2022/05/27 09:24:47;;;;;;;3.80;1.20;;;17.60;75.40;;;;;;5010052;28;20482;-58
2022/05/27 09:27:20;;;;;;;6.13;1.73;;;17.30;76.20;;;;;;5016946;28;20052;-59
2022/05/27 09:29:58;;;;;;;4.53;1.20;;;17.40;76.80;;;;;;5020539;28;20113;-59
2022/05/27 09:32:56;;;;;;;5.63;0.90;;;17.50;75.70;;;;;;5014455;28;20041;-58
2022/05/27 09:35:46;;;;;;;4.13;1.10;;;17.20;74.20;;;;;;5014022;28;20129;-59
2022/05/27 09:38:24;;;;;;;4.43;1.33;;;17.30;73.30;;;;;;4999060;28;20037;-57
2022/05/27 09:40:54;;;;;;;5.47;1.45;;;17.40;73.00;;;;;;5014002;28;20022;-58
2022/05/27 09:43:29;;;;;;;8.85;1.48;;;17.80;74.90;;;;;;5015697;28;20033;-58
2022/05/27 09:45:58;;;;;;;9.63;1.55;;;17.80;72.90;;;;;;5004618;28;20026;-57
2022/05/27 09:48:25;;;;;;;4.88;1.63;;;17.70;73.50;;;;;;5022163;28;20037;-58
2022/05/27 09:50:51;;;;;;;4.40;1.65;;;17.80;74.50;;;;;;5009481;28;20485;-58
2022/05/27 09:53:27;;;;;;;8.80;1.52;;;18.00;73.10;;;;;;5018762;28;20033;-58
2022/05/27 09:56:02;;;;;;;3.90;1.08;;;18.20;74.80;;;;;;5007972;28;20030;-59
2022/05/27 09:58:30;;;;;;;4.65;1.10;;;18.40;72.60;;;;;;5011710;28;20065;-57
2022/05/27 10:00:56;;;;;;;4.13;1.23;;;18.30;66.70;;;;;;5009895;28;20029;-57
2022/05/27 10:03:37;;;;;;;5.97;1.20;;;18.30;68.20;;;;;;5011100;28;20029;-59
2022/05/27 10:06:10;;;;;;;6.55;0.98;;;18.40;68.90;;;;;;5013221;28;20555;-57
2022/05/27 10:08:55;;;;;;;8.30;1.50;;;18.40;65.30;;;;;;5015573;28;20493;-57
2022/05/27 10:11:24;;;;;;;8.27;2.00;;;18.40;67.30;;;;;;5005073;28;20128;-58
2022/05/27 10:14:32;;;;;;;5.10;1.33;;;18.50;67.00;;;;;;5013850;28;20018;-58
2022/05/27 10:17:36;;;;;;;9.00;1.50;;;18.50;66.80;;;;;;5008932;28;20096;-57
2022/05/27 10:20:29;;;;;;;6.82;1.73;;;18.60;68.40;;;;;;5007892;28;20030;-57
2022/05/27 10:23:04;;;;;;;6.05;1.25;;;18.70;67.70;;;;;;5005215;28;20450;-57
2022/05/27 10:25:37;;;;;;;5.45;1.40;;;18.60;66.20;;;;;;5009961;28;20084;-58
2022/05/27 10:28:06;;;;;;;4.05;1.20;;;18.60;63.80;;;;;;5016750;28;20034;-57
2022/05/27 10:30:39;;;;;;;7.22;1.40;;;18.60;61.80;;;;;;5014105;28;20049;-58
2022/05/27 10:33:16;;;;;;;5.45;1.65;;;18.80;59.40;;;;;;5004460;28;20029;-58
2022/05/27 10:35:42;;;;;;;3.67;1.35;;;18.80;59.30;;;;;;5008848;28;20048;-57
2022/05/27 10:38:16;;;;;;;3.20;1.10;;;18.90;60.50;;;;;;5016494;28;20445;-57
2022/05/27 10:41:16;;;;;;;10.10;1.55;;;18.80;60.70;;;;;;5005423;28;20064;-57
2022/05/27 10:44:39;;;;;;;6.35;1.73;;;18.70;61.60;;;;;;5008002;28;20117;-57
2022/05/27 10:47:22;;;;;;;5.75;1.40;;;19.00;59.50;;;;;;4992739;28;20549;-58
2022/05/27 10:50:00;;;;;;;2.50;1.23;;;18.70;59.00;;;;;;4978251;28;20156;-59
2022/05/27 10:53:05;;;;;;;5.32;1.10;;;19.10;60.20;;;;;;4998536;28;20050;-56
2022/05/27 10:55:58;;;;;;;6.57;1.38;;;19.30;59.10;;;;;;4981652;28;20030;-57
2022/05/27 11:02:12;;;;;;;7.25;1.10;;;19.60;57.70;;;;;;4988790;28;20041;-57
2022/05/27 11:04:49;;;;;;;5.10;1.27;;;20.10;55.60;;;;;;4968377;28;20027;-57
2022/05/27 11:07:19;;;;;;;8.15;1.50;;;20.00;55.80;;;;;;4997364;28;20125;-57
2022/05/27 11:10:09;;;;;;;7.45;1.30;;;20.70;55.80;;;;;;4987657;28;20130;-57
2022/05/27 11:16:05;;;;;;;8.73;1.77;;;21.40;53.10;;;;;;4984314;28;20117;-57
2022/05/27 11:19:01;;;;;;;5.50;1.92;;;21.50;52.00;;;;;;5004495;28;20044;-58
2022/05/27 11:21:46;;;;;;;7.60;1.70;;;21.60;51.80;;;;;;5020872;28;20382;-59
2022/05/27 11:24:25;;;;;;;5.95;1.70;;;22.10;50.70;;;;;;5000117;28;20156;-59
2022/05/27 11:27:29;;;;;;;7.38;1.98;;;22.40;51.50;;;;;;5000163;28;20034;-59
2022/05/27 11:30:23;;;;;;;7.63;1.50;;;22.00;50.10;;;;;;5006315;28;20060;-59
2022/05/27 11:33:46;;;;;;;5.57;1.30;;;21.80;50.40;;;;;;5001954;28;20137;-58
2022/05/27 11:36:11;;;;;;;;;;;22.20;48.90;;;;;;4990346;28;20478;-58
2022/05/27 11:39:01;;;;;;;4.95;1.70;;;22.50;48.70;;;;;;4995552;28;19913;-59
2022/05/27 11:41:44;;;;;;;4.78;1.42;;;22.50;48.30;;;;;;5001841;28;20088;-56
2022/05/27 11:44:15;;;;;;;8.50;1.92;;;22.00;48.10;;;;;;4999366;28;20049;-58
2022/05/27 11:47:07;;;;;;;5.65;1.73;;;21.80;49.00;;;;;;5001271;28;20052;-58
2022/05/27 11:49:49;;;;;;;6.03;1.38;;;22.40;47.20;;;;;;4996151;28;20026;-58
2022/05/27 11:52:52;;;;;;;8.98;1.52;;;22.30;48.20;;;;;;5004622;28;20072;-58
2022/05/27 11:55:35;;;;;;;5.60;1.40;;;22.60;45.70;;;;;;5001448;28;20037;-59
2022/05/27 11:58:43;;;;;;;6.32;1.52;;;23.20;45.40;;;;;;4993044;28;20038;-58
2022/05/27 12:01:26;;;;;;;10.25;2.05;;;22.70;45.00;;;;;;4990731;28;20092;-59
2022/05/27 12:04:17;;;;;;;6.53;1.67;;;23.30;44.50;;;;;;4997900;28;20045;-59
2022/05/27 12:07:02;;;;;;;7.18;1.52;;;22.40;44.60;;;;;;4998163;28;20041;-59
2022/05/27 12:09:35;;;;;;;7.13;1.42;;;22.80;46.00;;;;;;4998113;28;20087;-58
2022/05/27 12:12:10;;;;;;;6.78;1.23;;;22.70;44.90;;;;;;5005395;28;20120;-59
2022/05/27 12:14:41;;;;;;;9.05;2.35;;;23.70;44.00;;;;;;5011714;28;20494;-58
2022/05/27 12:17:18;;;;;;;6.57;1.50;;;24.00;42.20;;;;;;5002342;28;20328;-59
2022/05/27 12:19:54;;;;;;;7.10;1.48;;;23.90;40.50;;;;;;5006859;28;20508;-59
2022/05/27 12:22:27;;;;;;;6.30;2.13;;;23.90;39.90;;;;;;5008930;28;20026;-61
2022/05/27 12:25:00;;;;;;;6.78;1.40;;;24.00;39.00;;;;;;5007638;28;20461;-57
2022/05/27 12:27:26;;;;;;;9.15;1.77;;;23.90;39.50;;;;;;5012765;28;20359;-58
2022/05/27 12:29:52;;;;;;;10.10;1.75;;;23.90;40.40;;;;;;5006232;28;20040;-57
2022/05/27 12:32:25;;;;;;;8.00;2.00;;;24.00;40.50;;;;;;5009885;28;20060;-59
2022/05/27 12:35:13;;;;;;;4.15;1.33;;;23.80;41.70;;;;;;5010175;28;20018;-57
2022/05/27 12:37:56;;;;;;;7.60;1.55;;;24.50;39.40;;;;;;5008879;28;20030;-59
2022/05/27 12:40:32;;;;;;;5.13;1.48;;;24.80;37.30;;;;;;5005154;28;20516;-57
2022/05/27 12:43:11;;;;;;;6.82;1.40;;;24.90;37.70;;;;;;5006650;28;20374;-57
2022/05/27 12:45:49;;;;;;;5.97;1.70;;;24.70;37.80;;;;;;5016336;28;20045;-58
2022/05/27 12:48:28;;;;;;;3.50;1.50;;;25.40;36.90;;;;;;5009154;28;20032;-58
2022/05/27 12:51:06;;;;;;;6.63;1.50;;;25.60;36.60;;;;;;5006029;28;20038;-59
2022/05/27 12:53:39;;;;;;;7.85;1.73;;;25.60;36.30;;;;;;5007880;28;20045;-58
2022/05/27 13:02:22;;;;;;;7.30;1.75;;;25.00;36.00;;;;;;5010546;28;20461;-58
2022/05/27 13:04:59;;;;;;;6.95;2.15;;;25.50;36.20;;;;;;5012327;28;20030;-57
2022/05/27 13:07:27;;;;;;;5.93;1.80;;;25.50;34.40;;;;;;5009458;28;20025;-58
2022/05/27 13:10:13;;;;;;;8.25;1.50;;;25.00;35.40;;;;;;5005477;28;20108;-57
2022/05/27 13:12:42;;;;;;;6.68;1.40;;;25.50;35.70;;;;;;5001830;28;20053;-58
2022/05/27 13:15:22;;;;;;;6.60;1.75;;;26.80;33.20;;;;;;5003006;28;20022;-59
2022/05/27 13:18:13;;;;;;;4.45;1.65;;;27.10;32.50;;;;;;5010100;28;20037;-59
2022/05/27 13:21:11;;;;;;;4.82;1.23;;;27.00;31.80;;;;;;4999263;28;20042;-59
2022/05/27 13:24:02;;;;;;;11.32;1.80;;;25.30;34.50;;;;;;5007500;28;20164;-58
2022/05/27 13:26:44;;;;;;;6.30;1.40;;;25.50;33.50;;;;;;5005666;28;20493;-57
2022/05/27 13:29:29;;;;;;;6.93;1.50;;;25.40;34.10;;;;;;5012264;28;20125;-57
2022/05/27 13:32:06;;;;;;;7.43;1.60;;;25.90;33.50;;;;;;5005118;28;20104;-57
2022/05/27 13:34:37;;;;;;;4.32;1.35;;;26.20;33.20;;;;;;5014330;28;20036;-59
2022/05/27 13:37:06;;;;;;;4.18;1.30;;;26.20;32.30;;;;;;5002135;28;20032;-58
2022/05/27 13:39:43;;;;;;;6.25;1.70;;;26.30;31.40;;;;;;5007952;28;20030;-58
2022/05/27 13:42:14;;;;;;;5.35;1.60;;;26.10;31.60;;;;;;5010768;28;20041;-58
2022/05/27 13:44:41;;;;;;;5.25;1.85;;;26.60;32.40;;;;;;5002772;28;20033;-58
2022/05/27 13:47:14;;;;;;;12.32;1.60;;;27.00;31.90;;;;;;5011791;28;20450;-58
2022/05/27 13:49:42;;;;;;;8.00;2.25;;;26.60;31.10;;;;;;5011601;28;20033;-58
2022/05/27 13:52:34;;;;;;;4.88;1.42;;;26.80;30.80;;;;;;5006808;28;20044;-58